LIRP/PSA METAR and TAF weather

Enter ICAO airport designator
Station Type Date Time Source
LIRP METAR 2021/09/25 13:15 UTC NOAA

LIRP 251315Z VRB03KT 9999 SCT040 26/16 Q1020 NOSIG


Station Type Date Time Source
LIRP Decoded METAR 2021/09/25 13:15 UTC NOAA

Pisa / S. Giusto, Italy (LIRP) 43-41N 010-23E 6M
Sep 25, 2021 - 09:15 AM EDT / 2021.09.25 1315 UTC
Wind: Variable at 3 MPH (3 KT):0
Visibility: greater than 7 mile(s):0
Sky conditions: partly cloudy
Temperature: 78 F (26 C)
Dew Point: 60 F (16 C)
Relative Humidity: 54%
Pressure (altimeter): 30.12 in. Hg (1020 hPa)
ob: LIRP 251315Z VRB03KT 9999 SCT040 26/16 Q1020 NOSIG
cycle: 13

Station Type Date Time Source
LIRP TAF 2021/09/25 12:21 UTC NOAA

TAF LIRP 251100Z 2512/2612 11010KT 9999 BKN030
TEMPO 2513/2520 29005KT PROB30
TEMPO 2600/2605 5000 BR
TEMPO 2605/2612 5000 RA BR SCT020 BKN025 PROB40
TEMPO 2607/2612 3000 TSRA FEW015CB BKN020

Example: see airport list